createdAt,value
2017-09-09T00:00:07.867Z,15.4
2017-09-09T00:05:25.333Z,15.3
2017-09-09T00:10:05.001Z,15.3
2017-09-09T00:15:05.240Z,15.2
2017-09-09T00:20:03.007Z,15.2
2017-09-09T00:25:05.230Z,15.2
2017-09-09T00:30:10.525Z,15.2
2017-09-09T00:35:03.214Z,15.2
2017-09-09T00:40:02.362Z,15.2
2017-09-09T00:45:08.173Z,15.2
2017-09-09T00:50:02.880Z,15.2
2017-09-09T00:55:02.896Z,15.2
2017-09-09T01:00:02.584Z,15.2
2017-09-09T01:05:08.378Z,15.2
2017-09-09T01:10:02.509Z,15.2
2017-09-09T01:15:08.317Z,15.2
2017-09-09T01:20:03.082Z,15.2
2017-09-09T01:25:10.385Z,15.2
2017-09-09T01:30:05.601Z,15.2
2017-09-09T01:35:03.290Z,15.2
2017-09-09T01:40:02.421Z,15.3
2017-09-09T01:45:03.133Z,15.3
2017-09-09T01:50:05.368Z,15.3
2017-09-09T01:55:03.081Z,15.3
2017-09-09T02:00:05.364Z,15.3
2017-09-09T02:05:20.776Z,15.3
2017-09-09T02:10:23.163Z,15.3
2017-09-09T02:15:02.856Z,15.3
2017-09-09T02:20:05.173Z,15.3
2017-09-09T02:25:02.842Z,15.3
2017-09-09T02:30:02.566Z,15.3
2017-09-09T02:35:05.808Z,15.4
2017-09-09T02:40:05.514Z,15.4
2017-09-09T02:45:08.276Z,15.3
2017-09-09T02:50:02.973Z,15.4
2017-09-09T02:55:02.652Z,15.4
2017-09-09T03:00:02.414Z,15.4
2017-09-09T03:05:03.133Z,15.3
2017-09-09T03:10:08.343Z,15.4
2017-09-09T03:15:05.572Z,15.4
2017-09-09T03:20:04.901Z,15.5
2017-09-09T03:25:02.660Z,15.4
2017-09-09T03:30:04.901Z,15.5
2017-09-09T03:35:05.158Z,15.6
2017-09-09T03:40:10.923Z,15.5
2017-09-09T03:45:02.603Z,15.5
2017-09-09T03:50:03.314Z,15.6
2017-09-09T03:55:05.539Z,15.6
2017-09-09T04:00:03.233Z,15.6
2017-09-09T04:05:05.439Z,15.6
2017-09-09T04:10:05.081Z,15.5
2017-09-09T04:15:05.326Z,15.6
2017-09-09T04:20:10.714Z,15.6
2017-09-09T04:25:27.720Z,15.6
2017-09-09T04:30:02.416Z,15.6
2017-09-09T04:35:05.650Z,15.6
2017-09-09T04:40:05.400Z,15.6
2017-09-09T04:45:03.119Z,15.6
2017-09-09T04:50:10.446Z,15.6
2017-09-09T04:55:05.664Z,15.6
2017-09-09T05:00:04.878Z,15.7
2017-09-09T05:05:02.548Z,15.6
2017-09-09T05:10:10.277Z,15.6
2017-09-09T05:15:02.950Z,15.6
2017-09-09T05:20:07.777Z,15.7
2017-09-09T05:25:04.990Z,15.7
2017-09-09T05:30:05.196Z,15.7
2017-09-09T05:35:02.860Z,15.7
2017-09-09T05:40:05.508Z,15.7
2017-09-09T05:45:03.183Z,15.7
2017-09-09T05:50:02.900Z,15.8
2017-09-09T05:55:10.224Z,15.8
2017-09-09T06:00:10.527Z,15.8
2017-09-09T06:05:03.244Z,15.8
2017-09-09T06:10:04.951Z,15.8
2017-09-09T06:15:02.662Z,15.8
2017-09-09T06:20:04.995Z,15.9
2017-09-09T06:25:12.903Z,15.9
2017-09-09T06:30:10.175Z,15.9
2017-09-09T06:35:02.873Z,15.9
2017-09-09T06:40:05.542Z,16
2017-09-09T06:45:05.801Z,16
2017-09-09T06:50:17.745Z,16.1
2017-09-09T06:55:05.001Z,16.1
2017-09-09T07:00:02.722Z,16.1
2017-09-09T07:05:10.036Z,16.2
2017-09-09T07:10:03.199Z,16.2
2017-09-09T07:15:05.441Z,16.3
2017-09-09T07:20:07.628Z,16.2
2017-09-09T07:25:02.973Z,16.2
2017-09-09T07:30:08.069Z,16.2
2017-09-09T07:35:05.673Z,16.2
2017-09-09T07:40:02.831Z,16.2
2017-09-09T07:45:10.145Z,16.1
2017-09-09T07:50:10.469Z,16.1
2017-09-09T07:55:03.170Z,16.1
2017-09-09T08:00:02.890Z,16.2
2017-09-09T08:05:10.176Z,16.1
2017-09-09T08:10:02.323Z,16.1
2017-09-09T08:15:05.590Z,16.1
2017-09-09T08:20:04.889Z,16.1
2017-09-09T08:25:02.624Z,16.1
2017-09-09T08:30:04.872Z,16
2017-09-09T08:35:07.659Z,15.9
2017-09-09T08:40:05.435Z,15.9
2017-09-09T08:45:15.895Z,16
2017-09-09T08:50:05.100Z,16
2017-09-09T08:55:02.826Z,16
2017-09-09T09:00:02.529Z,16
2017-09-09T09:05:10.843Z,16
2017-09-09T09:10:03.002Z,16
2017-09-09T09:15:05.230Z,16.1
2017-09-09T09:20:08.098Z,16.2
2017-09-09T09:25:02.820Z,16.2
2017-09-09T09:30:02.531Z,16.3
2017-09-09T09:35:05.783Z,16.4
2017-09-09T09:40:05.451Z,16.4
2017-09-09T09:45:05.721Z,16.4
2017-09-09T09:50:02.400Z,16.4
2017-09-09T09:55:03.112Z,16.4
2017-09-09T10:00:02.793Z,16.5
2017-09-09T10:05:05.031Z,16.5
2017-09-09T10:10:10.776Z,16.5
2017-09-09T10:15:02.441Z,16.5
2017-09-09T10:20:05.767Z,16.5
2017-09-09T10:25:02.481Z,16.5
2017-09-09T10:30:08.238Z,16.6
2017-09-09T10:35:05.562Z,16.7
2017-09-09T10:40:02.773Z,16.7
2017-09-09T10:45:15.134Z,16.8
2017-09-09T10:50:05.379Z,16.8
2017-09-09T10:55:08.163Z,16.9
2017-09-09T11:00:07.935Z,17
2017-09-09T11:05:07.713Z,17
2017-09-09T11:10:05.390Z,16.9
2017-09-09T11:15:05.629Z,16.9
2017-09-09T11:20:07.475Z,16.9
2017-09-09T11:25:10.788Z,16.9
2017-09-09T11:30:02.513Z,17
2017-09-09T11:35:03.242Z,17
2017-09-09T11:40:07.486Z,17
2017-09-09T11:45:05.750Z,17
2017-09-09T11:50:10.097Z,17
2017-09-09T11:55:02.810Z,17
2017-09-09T12:00:05.039Z,17.1
2017-09-09T12:05:05.311Z,17.1
2017-09-09T12:10:07.503Z,17.1
2017-09-09T12:15:20.939Z,17.1
2017-09-09T12:20:02.741Z,17.1
2017-09-09T12:25:07.529Z,17
2017-09-09T12:30:03.259Z,17
2017-09-09T12:35:08.048Z,17
2017-09-09T12:40:08.353Z,17.1
2017-09-09T12:45:15.707Z,17
2017-09-09T12:50:09.956Z,17.1
2017-09-09T12:55:02.664Z,17.1
2017-09-09T13:00:07.558Z,17.1
2017-09-09T13:05:03.271Z,17.1
2017-09-09T13:10:04.950Z,17.1
2017-09-09T13:15:02.627Z,17.1
2017-09-09T13:20:07.481Z,17.2
2017-09-09T13:25:18.369Z,17.3
2017-09-09T13:30:03.103Z,17.3
2017-09-09T13:35:07.900Z,17.4
2017-09-09T13:40:05.552Z,17.4
2017-09-09T13:45:03.242Z,17.4
2017-09-09T13:50:05.480Z,17.6
2017-09-09T13:55:03.235Z,17.7
2017-09-09T14:00:02.963Z,18
2017-09-09T14:05:02.682Z,18.2
2017-09-09T14:10:05.368Z,18.3
2017-09-09T14:15:03.052Z,18.3
2017-09-09T14:20:25.584Z,19
2017-09-09T14:25:05.821Z,19.2
2017-09-09T14:30:05.669Z,19.8
2017-09-09T14:35:04.859Z,20.3
2017-09-09T14:40:05.565Z,20.6
2017-09-09T14:45:03.308Z,20.6
2017-09-09T14:50:10.606Z,20.2
2017-09-09T14:55:05.828Z,20.1
2017-09-09T15:00:02.550Z,20.1
2017-09-09T15:05:03.254Z,20
2017-09-09T15:10:17.622Z,20.1
2017-09-09T15:15:02.372Z,20
2017-09-09T15:20:05.703Z,20.5
2017-09-09T15:25:04.957Z,20.5
2017-09-09T15:30:02.664Z,20.5
2017-09-09T15:35:04.928Z,20.3
2017-09-09T15:40:03.112Z,20.3
2017-09-09T15:45:02.858Z,20.2
2017-09-09T15:50:05.079Z,20.1
2017-09-09T15:55:05.327Z,20
2017-09-09T16:00:02.996Z,19.9
2017-09-09T16:05:02.731Z,19.8
2017-09-09T16:10:05.461Z,19.6
2017-09-09T16:15:08.225Z,19.5
2017-09-09T16:20:02.992Z,19.5
2017-09-09T16:25:02.723Z,19.3
2017-09-09T16:30:02.424Z,19.1
2017-09-09T16:35:03.194Z,18.9
2017-09-09T16:40:04.890Z,18.7
2017-09-09T16:45:05.124Z,18.6
2017-09-09T16:50:12.992Z,18.5
2017-09-09T16:55:05.208Z,18.4
2017-09-09T17:00:08.007Z,18.3
2017-09-09T17:05:05.231Z,18.2
2017-09-09T17:10:04.914Z,18.1
2017-09-09T17:15:05.173Z,17.9
2017-09-09T17:20:25.849Z,17.8
2017-09-09T17:25:05.042Z,17.8
2017-09-09T17:30:02.764Z,17.8
2017-09-09T17:35:02.479Z,17.7
2017-09-09T17:40:02.671Z,17.6
2017-09-09T17:45:04.969Z,17.5
2017-09-09T17:50:10.286Z,17.4
2017-09-09T17:55:02.967Z,17.4
2017-09-09T18:00:02.724Z,17.3
2017-09-09T18:05:17.637Z,17.2
2017-09-09T18:10:05.291Z,17.2
2017-09-09T18:15:03.000Z,17.1
2017-09-09T18:20:10.394Z,17.1
2017-09-09T18:25:05.624Z,17.2
2017-09-09T18:30:07.468Z,17.1
2017-09-09T18:35:08.239Z,17.1
2017-09-09T18:40:07.460Z,17
2017-09-09T18:45:05.669Z,17
2017-09-09T18:50:02.421Z,16.9
2017-09-09T18:55:03.183Z,16.9
2017-09-09T19:00:07.953Z,16.8
2017-09-09T19:05:07.761Z,16.7
2017-09-09T19:10:05.397Z,16.7
2017-09-09T19:15:03.060Z,16.7
2017-09-09T19:20:02.847Z,16.7
2017-09-09T19:25:10.146Z,16.7
2017-09-09T19:30:02.812Z,16.8
2017-09-09T19:35:07.607Z,16.8
2017-09-09T19:40:02.754Z,16.8
2017-09-09T19:45:02.463Z,16.8
2017-09-09T19:50:05.721Z,16.7
2017-09-09T19:55:04.968Z,16.7
2017-09-09T20:00:05.197Z,16.7
2017-09-09T20:05:05.400Z,16.6
2017-09-09T20:10:10.155Z,16.6
2017-09-09T20:15:05.389Z,16.5
2017-09-09T20:20:08.227Z,16.5
2017-09-09T20:25:02.901Z,16.5
2017-09-09T20:30:02.604Z,16.5
2017-09-09T20:35:10.884Z,16.5
2017-09-09T20:40:03.019Z,16.5
2017-09-09T20:45:05.267Z,16.5
2017-09-09T20:50:02.970Z,16.4
2017-09-09T20:55:05.215Z,16.4
2017-09-09T21:00:02.901Z,16.4
2017-09-09T21:05:05.152Z,16.3
2017-09-09T21:10:10.864Z,16.2
2017-09-09T21:15:05.089Z,16.2
2017-09-09T21:20:07.946Z,16.2
2017-09-09T21:25:05.197Z,16.2
2017-09-09T21:30:02.897Z,16.3
2017-09-09T21:35:02.600Z,16.2
2017-09-09T21:40:07.834Z,16.2
2017-09-09T21:45:07.628Z,16.2
2017-09-09T21:50:04.837Z,16.2
2017-09-09T21:55:02.572Z,16.2
2017-09-09T22:00:05.839Z,16.1
2017-09-09T22:05:02.607Z,16.1
2017-09-09T22:10:13.261Z,16.1
2017-09-09T22:15:02.922Z,16.1
2017-09-09T22:20:05.237Z,16.1
2017-09-09T22:25:05.428Z,16.1
2017-09-09T22:30:03.119Z,16
2017-09-09T22:35:02.589Z,16
2017-09-09T22:40:07.810Z,16
2017-09-09T22:45:25.295Z,15.9
2017-09-09T22:50:02.951Z,15.9
2017-09-09T22:55:05.189Z,15.9
2017-09-09T23:00:05.446Z,15.9
2017-09-09T23:05:03.138Z,15.9
2017-09-09T23:10:03.321Z,15.9
2017-09-09T23:15:08.107Z,15.8
2017-09-09T23:20:05.421Z,15.8
2017-09-09T23:25:03.148Z,15.8
2017-09-09T23:30:02.802Z,15.7
2017-09-09T23:35:02.506Z,15.7
2017-09-09T23:40:05.235Z,15.7
2017-09-09T23:45:02.995Z,15.7
2017-09-09T23:50:02.744Z,15.6
2017-09-09T23:55:07.533Z,15.6
